Kimball, NE

7:58 AM MDT on May 21, 2018 (GMT -0600)
Kimball Municipal-Arraj

Weather History for KIBM - November, 2013

Change the Weather History Date:

Sunday, November 24, 2013

  Actual Average (KSNY) Record (KSNY)
Temperature  
Mean Temperature 24 °F -  
Max Temperature 34 °F 46 °F 74 °F (2011)
Min Temperature 14 °F 17 °F -5 °F (1993)
Degree Days  
Heating Degree Days 41    
Moisture  
Dew Point 18 °F    
Average Humidity 76    
Maximum Humidity 89    
Minimum Humidity 59    
Precipitation  
Precipitation 0.00 in - - ()
Sea Level Pressure  
Sea Level Pressure 30.07 in    
Wind  
Wind Speed 10 mph (SSW)    
Max Wind Speed 18 mph    
Max Gust Speed 23 mph    
Visibility 10 miles    
Events      
Averages and records for this station are not official NWS values.
T = Trace of Precipitation, MM = Missing Value Source: NWS Daily Summary

Daily Weather History Graph

Daily Weather History Graph

Search for Another Location

Airport or City:

Astronomy

Nov. 24, 2013 Rise Set
Actual Time 7:53 AM CST 5:29 PM CST
Civil Twilight 7:23 AM CST 5:59 PM CST
Nautical Twilight 6:49 AM CST 6:33 PM CST
Astronomical Twilight 6:16 AM CST 7:06 PM CST
Moon 11:59 PM CST (11/24) 12:40 PM CST (11/24)
Length of Visible Light 10h 36m
Length of Day
9h 35m
Waning Gibbous, 60% of the Moon is Illuminated
Nov 24
Waning Gibbous
Nov 25
Last Quarter
Dec 2
New
Dec 9
First Quarter
Dec 17
Full

Hourly Weather History & Observations

Time (CST) Temp. Windchill Dew Point Humidity Pressure Visibility Wind Dir Wind Speed Gust Speed Precip Events Conditions
12:15 AM 22.6 °F 11.3 °F 16.7 °F 78% 30.33 in 10.0 mi SSE 11.5 mph - N/A   Overcast
12:35 AM 23.0 °F 12.4 °F 17.1 °F 78% 30.32 in 10.0 mi SSE 10.4 mph - N/A   Overcast
12:55 AM 21.9 °F 10.4 °F 16.2 °F 78% 30.30 in 10.0 mi South 11.5 mph - N/A   Mostly Cloudy
1:15 AM 20.3 °F 9.0 °F 15.1 °F 80% 30.29 in 10.0 mi South 10.4 mph - N/A   Scattered Clouds
1:35 AM 19.8 °F 7.7 °F 14.7 °F 81% 30.28 in 10.0 mi South 11.5 mph - N/A   Clear
1:55 AM 18.5 °F 6.8 °F 13.8 °F 82% 30.26 in 10.0 mi SSE 10.4 mph - N/A   Clear
2:15 AM 17.6 °F 5.7 °F 13.3 °F 83% 30.25 in 10.0 mi SSE 10.4 mph - N/A   Clear
2:35 AM 16.9 °F 8.5 °F 12.7 °F 84% 30.24 in 10.0 mi SSE 5.8 mph - N/A   Clear
2:55 AM 15.6 °F 8.3 °F 11.8 °F 85% 30.24 in 10.0 mi SE 4.6 mph - N/A   Clear
3:15 AM 15.4 °F 4.6 °F 11.8 °F 86% 30.23 in 10.0 mi SE 8.1 mph - N/A   Clear
3:35 AM 15.1 °F 5.2 °F 11.8 °F 87% 30.22 in 10.0 mi SSE 6.9 mph - N/A   Clear
3:55 AM 14.9 °F 7.5 °F 11.7 °F 87% 30.21 in 10.0 mi SE 4.6 mph - N/A   Clear
4:15 AM 15.3 °F 6.6 °F 12.2 °F 88% 30.19 in 10.0 mi SE 5.8 mph - N/A   Clear
4:35 AM 15.4 °F 4.6 °F 11.8 °F 86% 30.18 in 10.0 mi SSE 8.1 mph - N/A   Clear
4:55 AM 18.9 °F 5.3 °F 13.3 °F 79% 30.18 in 10.0 mi South 13.8 mph - N/A   Clear
5:15 AM 21.6 °F 8.2 °F 14.4 °F 74% 30.17 in 10.0 mi South 15.0 mph - N/A   Clear
5:35 AM 21.9 °F 8.7 °F 14.9 °F 74% 30.16 in 10.0 mi South 15.0 mph - N/A   Clear
5:55 AM 22.6 °F 8.7 °F 15.3 °F 73% 30.15 in 10.0 mi South 17.3 mph - N/A   Clear
6:15 AM 23.4 °F 10.1 °F 15.6 °F 72% 30.15 in 10.0 mi South 16.1 mph - N/A   Clear
6:35 AM 23.0 °F 10.1 °F 15.8 °F 74% 30.14 in 10.0 mi South 15.0 mph - N/A   Clear
6:55 AM 22.8 °F 9.9 °F 15.8 °F 74% 30.13 in 10.0 mi South 15.0 mph - N/A   Clear
7:15 AM 22.6 °F 9.2 °F 15.8 °F 75% 30.13 in 10.0 mi SSE 16.1 mph - N/A   Clear
7:35 AM 22.5 °F 9.4 °F 15.8 °F 76% 30.13 in 10.0 mi South 15.0 mph - N/A   Clear
7:55 AM 22.1 °F 12.0 °F 14.9 °F 74% 30.13 in 10.0 mi South 9.2 mph - N/A   Clear
8:15 AM 21.7 °F 9.0 °F 14.7 °F 74% 30.11 in 10.0 mi South 13.8 mph - N/A   Clear
8:35 AM 21.9 °F 11.0 °F 14.7 °F 74% 30.11 in 10.0 mi South 10.4 mph - N/A   Clear
8:55 AM 22.1 °F 12.0 °F 14.9 °F 74% 30.11 in 10.0 mi South 9.2 mph - N/A   Clear
9:15 AM 22.6 °F 12.6 °F 15.4 °F 74% 30.10 in 10.0 mi South 9.2 mph - N/A   Clear
9:35 AM 23.0 °F 12.4 °F 15.6 °F 73% 30.10 in 10.0 mi South 10.4 mph - N/A   Clear
9:55 AM 23.9 °F 12.9 °F 15.8 °F 71% 30.09 in 10.0 mi South 11.5 mph - N/A   Clear
10:15 AM 23.9 °F 12.3 °F 16.3 °F 73% 30.09 in 10.0 mi South 12.7 mph - N/A   Clear
10:35 AM 25.3 °F 14.1 °F 17.6 °F 72% 30.08 in 10.0 mi South 12.7 mph - N/A   Clear
10:55 AM 26.8 °F 15.9 °F 18.7 °F 72% 30.08 in 10.0 mi SSW 12.7 mph 18.4 mph N/A   Clear
11:15 AM 27.5 °F 14.6 °F 19.4 °F 72% 30.07 in 10.0 mi South 18.4 mph 21.9 mph N/A   Clear
11:35 AM 27.5 °F 16.3 °F 19.4 °F 72% 30.06 in 10.0 mi SSW 13.8 mph - N/A   Clear
11:55 AM 28.2 °F 16.8 °F 20.1 °F 72% 30.04 in 10.0 mi South 15.0 mph - N/A   Clear
12:15 PM 29.3 °F 17.7 °F 20.7 °F 70% 30.03 in 10.0 mi South 16.1 mph - N/A   Clear
12:35 PM 28.4 °F 18.0 °F 20.5 °F 72% 30.03 in 10.0 mi South 12.7 mph - N/A   Clear
12:55 PM 28.0 °F 20.0 °F 20.8 °F 74% 30.02 in 10.0 mi South 8.1 mph - N/A   Clear
1:15 PM 29.1 °F 21.3 °F 21.2 °F 72% 30.01 in 10.0 mi SSW 8.1 mph - N/A   Clear
1:35 PM 30.0 °F 21.1 °F 21.2 °F 70% 30.00 in 10.0 mi South 10.4 mph - N/A   Clear
1:55 PM 29.8 °F 24.9 °F 21.7 °F 72% 29.99 in 10.0 mi SSW 4.6 mph - N/A   Clear
2:35 PM 33.3 °F 25.7 °F 23.7 °F 68% 29.98 in 10.0 mi South 9.2 mph - N/A   Clear
2:55 PM 32.9 °F 26.7 °F 23.9 °F 69% 29.97 in 10.0 mi South 6.9 mph - N/A   Clear
3:15 PM 34.2 °F 26.8 °F 24.6 °F 68% 29.95 in 10.0 mi South 9.2 mph - N/A   Clear
3:35 PM 34.2 °F 26.2 °F 24.6 °F 68% 29.95 in 10.0 mi South 10.4 mph - N/A   Clear
3:55 PM 33.4 °F 25.9 °F 24.8 °F 71% 29.95 in 10.0 mi South 9.2 mph - N/A   Clear
4:15 PM 32.9 °F 27.5 °F 24.8 °F 72% 29.95 in 10.0 mi South 5.8 mph - N/A   Clear
4:35 PM 32.2 °F 25.8 °F 25.2 °F 75% 29.95 in 10.0 mi South 6.9 mph - N/A   Clear
4:55 PM 32.0 °F 26.4 °F 24.8 °F 75% 29.95 in 10.0 mi South 5.8 mph - N/A   Clear
5:15 PM 30.0 °F 25.2 °F 23.9 °F 78% 29.94 in 10.0 mi South 4.6 mph - N/A   Clear
5:35 PM 26.8 °F 22.8 °F 21.6 °F 81% 29.94 in 10.0 mi SW 3.5 mph - N/A   Clear
5:55 PM 25.0 °F 20.7 °F 21.4 °F 86% 29.94 in 10.0 mi West 3.5 mph - N/A   Clear
6:15 PM 23.5 °F 17.6 °F 20.7 °F 89% 29.95 in 10.0 mi WSW 4.6 mph - N/A   Clear
6:35 PM 22.8 °F 18.2 °F 19.9 °F 89% 29.95 in 10.0 mi WSW 3.5 mph - N/A   Clear
6:55 PM 22.8 °F 15.5 °F 20.1 °F 89% 29.94 in 10.0 mi West 5.8 mph - N/A   Clear
7:15 PM 22.1 °F 13.7 °F 18.7 °F 87% 29.94 in 10.0 mi West 6.9 mph - N/A   Clear
7:35 PM 23.0 °F 18.4 °F 19.4 °F 86% 29.94 in 10.0 mi WSW 3.5 mph - N/A   Clear
7:55 PM 22.1 °F 15.9 °F 18.1 °F 85% 29.94 in 10.0 mi West 4.6 mph - N/A   Clear
8:15 PM 23.4 °F 13.5 °F 18.9 °F 83% 29.94 in 10.0 mi WNW 9.2 mph - N/A   Clear
8:35 PM 23.5 °F 14.5 °F 18.5 °F 81% 29.94 in 10.0 mi WNW 8.1 mph - N/A   Clear
8:55 PM 23.0 °F 12.4 °F 18.1 °F 82% 29.94 in 10.0 mi WNW 10.4 mph - N/A   Clear
9:15 PM 21.7 °F 12.3 °F 16.9 °F 82% 29.94 in 10.0 mi WNW 8.1 mph - N/A   Clear
9:35 PM 19.9 °F 8.6 °F 15.6 °F 83% 29.94 in 7.0 mi WNW 10.4 mph - N/A   Clear
9:55 PM 26.1 °F 16.8 °F 19.2 °F 75% 29.94 in 10.0 mi NW 9.2 mph - N/A   Clear
10:15 PM 29.7 °F 19.1 °F 19.6 °F 66% 29.94 in 10.0 mi NNW 13.8 mph - N/A   Clear
10:35 PM 30.0 °F 18.7 °F 19.8 °F 66% 29.95 in 10.0 mi NNW 16.1 mph - N/A   Clear
10:55 PM 31.5 °F 20.1 °F 19.6 °F 62% 29.95 in 10.0 mi NNW 17.3 mph 23.0 mph N/A   Clear
11:15 PM 32.0 °F 21.2 °F 19.2 °F 59% 29.96 in 10.0 mi NNW 16.1 mph - N/A   Clear
11:35 PM 31.8 °F 21.0 °F 18.9 °F 59% 29.96 in 10.0 mi NNW 16.1 mph - N/A   Clear
11:55 PM 30.7 °F 20.9 °F 18.3 °F 60% 29.97 in 10.0 mi NNW 12.7 mph - N/A   Clear